Time;durP1;ratioP1;P1;durP2;ratioP2;P2;SDS_P1;SDS_P2;PMS_P1;PMS_P2;Temp;Humidity;BMP_temperature;BMP_pressure;BME280_temperature;BME280_humidity;BME280_pressure;Samples;Min_cycle;Max_cycle;Signal;HPM_P1;HPM_P2
2022/02/08 00:00:24;;;;;;;6.60;2.63;;;;;;;;;;4912549;29;20048;-66
2022/02/08 00:02:54;;;;;;;6.18;2.72;;;;;;;;;;4912453;29;20047;-67
2022/02/08 00:05:22;;;;;;;8.98;3.75;;;;;;;;;;4912893;29;20025;-67
2022/02/08 00:07:51;;;;;;;11.07;4.32;;;;;;;;;;4912942;29;20035;-67
2022/02/08 00:10:18;;;;;;;7.57;3.53;;;;;;;;;;4912669;29;20052;-67
2022/02/08 00:12:45;;;;;;;6.47;3.30;;;;;;;;;;4912819;29;20032;-68
2022/02/08 00:15:12;;;;;;;9.07;3.50;;;;;;;;;;4912886;29;20040;-66
2022/02/08 00:17:38;;;;;;;7.00;3.58;;;;;;;;;;4933334;29;20054;-66
2022/02/08 00:20:07;;;;;;;8.18;3.47;;;;;;;;;;4933840;29;20562;-66
2022/02/08 00:22:33;;;;;;;9.52;3.60;;;;;;;;;;4933948;29;20032;-65
2022/02/08 00:24:59;;;;;;;12.52;4.28;;;;;;;;;;4932944;29;20035;-66
2022/02/08 00:27:25;;;;;;;12.70;4.10;;;;;;;;;;4934123;29;20039;-66
2022/02/08 00:29:51;;;;;;;8.00;3.17;;;;;;;;;;4933461;29;20044;-67
2022/02/08 00:32:17;;;;;;;5.07;2.60;;;;;;;;;;4933861;29;20070;-67
2022/02/08 00:34:43;;;;;;;7.15;2.92;;;;;;;;;;4933841;29;20504;-67
2022/02/08 00:37:09;;;;;;;10.60;3.10;;;;;;;;;;4933902;29;20549;-66
2022/02/08 00:39:36;;;;;;;8.85;2.53;;;;;;;;;;4933688;29;20043;-67
2022/02/08 00:42:06;;;;;;;6.95;2.50;;;;;;;;;;4933616;29;20548;-66
2022/02/08 00:44:45;;;;;;;7.35;2.75;;;;;;;;;;4933785;29;20039;-67
2022/02/08 00:49:46;;;;;;;6.22;2.40;;;;;;;;;;4933505;29;20083;-66
2022/02/08 00:52:15;;;;;;;6.43;2.40;;;;;;;;;;4932767;29;20059;-66
2022/02/08 00:54:42;;;;;;;6.20;2.45;;;;;;;;;;4933711;29;20036;-67
2022/02/08 00:57:08;;;;;;;11.30;3.30;;;;;;;;;;4933652;29;20087;-67
2022/02/08 00:59:35;;;;;;;9.55;3.05;;;;;;;;;;4933456;29;20058;-67
2022/02/08 01:02:01;;;;;;;6.80;2.50;;;;;;;;;;4933419;29;20035;-67
2022/02/08 01:04:27;;;;;;;8.00;2.85;;;;;;;;;;4933416;29;20024;-67
2022/02/08 01:06:57;;;;;;;5.53;2.40;;;;;;;;;;4916443;29;20107;-67
2022/02/08 01:12:05;;;;;;;7.43;2.53;;;;;;;;;;4933362;29;20044;-66
2022/02/08 01:14:37;;;;;;;7.05;2.20;;;;;;;;;;4933385;29;20028;-66
2022/02/08 01:17:03;;;;;;;4.50;1.90;;;;;;;;;;4933343;29;20071;-66
2022/02/08 01:19:29;;;;;;;5.68;1.35;;;;;;;;;;4933574;29;20078;-65
2022/02/08 01:21:55;;;;;;;6.13;2.60;;;;;;;;;;4933434;29;20028;-66
2022/02/08 01:24:21;;;;;;;3.75;1.52;;;;;;;;;;4933178;29;20028;-66
2022/02/08 01:26:55;;;;;;;6.57;2.33;;;;;;;;;;4933281;29;20064;-66
2022/02/08 01:29:36;;;;;;;6.97;2.70;;;;;;;;;;4933433;29;20039;-68
2022/02/08 01:32:16;;;;;;;9.00;2.50;;;;;;;;;;4933356;29;20051;-66
2022/02/08 01:48:09;;;;;;;7.80;2.10;;;;;;;;;;4877854;29;20061;-66
2022/02/08 01:50:35;;;;;;;6.53;2.10;;;;;;;;;;4878059;29;20496;-66
2022/02/08 01:53:02;;;;;;;7.35;2.10;;;;;;;;;;4877580;29;20049;-66
2022/02/08 01:55:28;;;;;;;5.43;1.83;;;;;;;;;;4877897;29;20041;-66
2022/02/08 01:57:54;;;;;;;8.52;2.58;;;;;;;;;;4877682;29;20482;-66
2022/02/08 02:00:21;;;;;;;8.93;2.30;;;;;;;;;;4877575;29;20041;-65
2022/02/08 02:02:47;;;;;;;5.93;2.05;;;;;;;;;;4877465;29;20037;-65
2022/02/08 02:05:13;;;;;;;10.20;2.38;;;;;;;;;;4877679;29;20033;-67
2022/02/08 02:07:47;;;;;;;7.07;1.90;;;;;;;;;;4877411;29;20145;-67
2022/02/08 02:10:14;;;;;;;7.63;2.20;;;;;;;;;;4877111;29;20056;-67
2022/02/08 02:13:00;;;;;;;6.78;1.85;;;;;;;;;;4877093;29;20033;-67
2022/02/08 02:15:26;;;;;;;7.13;2.05;;;;;;;;;;4876941;29;20037;-67
2022/02/08 02:17:52;;;;;;;10.85;2.60;;;;;;;;;;4876992;29;20040;-65
2022/02/08 02:20:19;;;;;;;6.97;1.92;;;;;;;;;;4892031;29;20177;-65
2022/02/08 02:22:45;;;;;;;9.63;2.33;;;;;;;;;;4916918;29;20052;-66
2022/02/08 02:25:23;;;;;;;7.20;1.75;;;;;;;;;;4935536;29;20043;-68
2022/02/08 02:27:53;;;;;;;7.32;2.08;;;;;;;;;;4935504;29;20035;-67
2022/02/08 02:30:19;;;;;;;7.82;2.50;;;;;;;;;;4935472;29;20062;-65
2022/02/08 02:32:45;;;;;;;7.88;1.63;;;;;;;;;;4935491;29;20038;-65
2022/02/08 02:35:11;;;;;;;8.27;2.47;;;;;;;;;;4935414;29;20031;-65
2022/02/08 02:37:37;;;;;;;9.75;2.15;;;;;;;;;;4935164;29;20024;-66
2022/02/08 02:40:04;;;;;;;9.30;2.58;;;;;;;;;;4935073;29;20027;-66
2022/02/08 02:42:31;;;;;;;5.65;2.00;;;;;;;;;;4935429;29;20090;-65
2022/02/08 02:44:57;;;;;;;6.60;1.20;;;;;;;;;;4935216;29;20032;-66
2022/02/08 02:47:24;;;;;;;7.90;2.10;;;;;;;;;;4934688;29;20064;-65
2022/02/08 02:49:51;;;;;;;6.35;2.28;;;;;;;;;;4935211;29;20403;-65
2022/02/08 02:52:17;;;;;;;8.25;2.42;;;;;;;;;;4934968;28;20111;-67
2022/02/08 02:54:43;;;;;;;10.13;2.17;;;;;;;;;;4934872;29;20028;-67
2022/02/08 02:57:12;;;;;;;10.73;2.33;;;;;;;;;;4935084;29;20333;-65
2022/02/08 02:59:39;;;;;;;6.10;1.98;;;;;;;;;;4934891;29;20440;-67
2022/02/08 03:02:42;;;;;;;7.97;2.20;;;;;;;;;;4935870;29;20020;-67
2022/02/08 03:18:40;;;;;;;7.18;2.30;;;;;;;;;;4934591;29;20047;-67
2022/02/08 03:21:08;;;;;;;8.93;1.90;;;;;;;;;;4934844;29;20819;-67
2022/02/08 03:23:34;;;;;;;10.35;2.42;;;;;;;;;;4934411;29;20125;-67
2022/02/08 03:26:00;;;;;;;7.60;1.88;;;;;;;;;;4934359;29;20039;-66
2022/02/08 03:28:27;;;;;;;11.50;2.58;;;;;;;;;;4934486;29;20488;-66
2022/02/08 03:30:53;;;;;;;7.88;2.05;;;;;;;;;;4934660;29;20090;-67
2022/02/08 03:33:19;;;;;;;8.82;2.30;;;;;;;;;;4934618;29;20106;-66
2022/02/08 03:35:46;;;;;;;8.20;1.90;;;;;;;;;;4934741;29;20108;-67
2022/02/08 03:38:16;;;;;;;8.60;1.92;;;;;;;;;;4934652;29;20476;-66
2022/02/08 03:40:48;;;;;;;9.38;2.80;;;;;;;;;;4934555;29;20028;-66
2022/02/08 03:43:33;;;;;;;10.93;2.15;;;;;;;;;;4934279;29;20016;-67
2022/02/08 03:46:03;;;;;;;14.35;2.30;;;;;;;;;;4934365;29;20070;-67
2022/02/08 03:48:31;;;;;;;7.40;2.40;;;;;;;;;;4934004;29;20028;-67
2022/02/08 03:51:23;;;;;;;13.32;2.25;;;;;;;;;;4934163;29;20091;-67
2022/02/08 03:53:45;;;;;;;12.95;3.05;;;;;;;;;;4933456;29;20063;-66
2022/02/08 03:56:12;;;;;;;8.55;2.25;;;;;;;;;;4934122;29;20036;-67
2022/02/08 03:58:39;;;;;;;9.02;2.10;;;;;;;;;;4933749;29;20028;-67
2022/02/08 05:47:42;;;;;;;14.77;4.47;;;;;;;;;;5195339;23;20057;-67
2022/02/08 05:52:52;;;;;;;13.13;5.80;;;;;;;;;;4964151;28;20023;-66
2022/02/08 05:55:18;;;;;;;11.88;5.70;;;;;;;;;;4948146;28;20031;-64
2022/02/08 05:57:45;;;;;;;13.15;4.40;;;;;;;;;;4962822;28;20062;-66
2022/02/08 06:00:12;;;;;;;10.85;3.10;;;;;;;;;;4963497;28;20434;-67
2022/02/08 06:02:38;;;;;;;10.57;2.75;;;;;;;;;;4959674;28;20026;-66
2022/02/08 06:05:08;;;;;;;12.50;2.92;;;;;;;;;;4960990;28;20067;-66
2022/02/08 06:07:34;;;;;;;9.23;3.00;;;;;;;;;;4964335;28;20102;-69
2022/02/08 06:10:00;;;;;;;13.02;2.80;;;;;;;;;;4965882;28;20070;-68
2022/02/08 06:12:26;;;;;;;11.30;2.75;;;;;;;;;;4963292;28;20098;-68
2022/02/08 06:14:59;;;;;;;27.50;9.98;;;;;;;;;;4964366;28;20027;-66
2022/02/08 06:17:25;;;;;;;17.67;6.88;;;;;;;;;;4964337;28;20062;-68
2022/02/08 06:19:55;;;;;;;26.80;11.05;;;;;;;;;;4962521;28;20741;-68
2022/02/08 06:22:22;;;;;;;12.73;3.53;;;;;;;;;;4961447;28;20026;-67
2022/02/08 06:24:48;;;;;;;16.15;3.53;;;;;;;;;;4962622;28;20073;-69
2022/02/08 06:27:14;;;;;;;7.88;2.30;;;;;;;;;;4964115;28;20027;-66
2022/02/08 06:29:41;;;;;;;11.95;3.78;;;;;;;;;;4960165;28;20463;-69
2022/02/08 06:32:07;;;;;;;9.68;3.88;;;;;;;;;;4963950;28;20020;-69
2022/02/08 06:34:33;;;;;;;18.23;4.57;;;;;;;;;;4962708;28;20067;-68
2022/02/08 06:37:06;;;;;;;14.43;4.20;;;;;;;;;;4961195;28;20055;-65
2022/02/08 06:39:36;;;;;;;18.92;9.35;;;;;;;;;;4953796;28;20035;-66
2022/02/08 06:42:02;;;;;;;26.98;12.15;;;;;;;;;;4954708;29;20039;-65
2022/02/08 06:44:28;;;;;;;16.65;7.75;;;;;;;;;;4954401;29;20027;-67
2022/02/08 06:46:54;;;;;;;14.52;3.55;;;;;;;;;;4948764;29;20086;-66
2022/02/08 06:49:20;;;;;;;10.98;4.03;;;;;;;;;;4935641;29;20035;-66
2022/02/08 06:51:47;;;;;;;15.23;5.25;;;;;;;;;;4953805;29;20047;-67
2022/02/08 06:54:13;;;;;;;16.48;4.80;;;;;;;;;;4954260;29;20077;-66
2022/02/08 06:56:39;;;;;;;12.05;3.08;;;;;;;;;;4953719;29;20054;-66
2022/02/08 06:59:07;;;;;;;12.63;3.72;;;;;;;;;;4953993;29;20031;-67
2022/02/08 07:01:35;;;;;;;6.35;2.38;;;;;;;;;;4953010;29;20027;-67
2022/02/08 07:04:04;;;;;;;16.55;5.20;;;;;;;;;;4950255;29;20092;-67
2022/02/08 07:06:30;;;;;;;11.27;4.32;;;;;;;;;;4953112;29;20497;-65
2022/02/08 07:08:56;;;;;;;10.27;4.13;;;;;;;;;;4952644;29;20443;-67
2022/02/08 07:11:22;;;;;;;42.60;18.63;;;;;;;;;;4952909;29;20142;-66
2022/02/08 07:13:49;;;;;;;176.48;73.30;;;;;;;;;;4952603;29;20033;-65
2022/02/08 07:16:15;;;;;;;37.42;16.10;;;;;;;;;;4952069;29;20023;-64
2022/02/08 07:18:42;;;;;;;15.10;4.80;;;;;;;;;;4953828;29;20027;-65
2022/02/08 07:21:09;;;;;;;11.55;4.30;;;;;;;;;;4936332;29;20388;-67
2022/02/08 07:23:36;;;;;;;8.68;3.40;;;;;;;;;;4951545;29;20446;-67
2022/02/08 07:26:02;;;;;;;9.95;2.70;;;;;;;;;;4952224;29;20031;-65
2022/02/08 07:28:28;;;;;;;11.57;3.90;;;;;;;;;;4952528;29;20019;-65
2022/02/08 07:31:02;;;;;;;8.32;2.47;;;;;;;;;;4952724;29;20035;-67
2022/02/08 07:33:30;;;;;;;12.00;3.50;;;;;;;;;;4952134;28;20572;-66
2022/02/08 07:36:11;;;;;;;13.88;4.35;;;;;;;;;;4953659;29;20043;-66
2022/02/08 07:38:39;;;;;;;14.05;3.42;;;;;;;;;;4952334;29;20098;-66
2022/02/08 07:43:32;;;;;;;11.88;2.70;;;;;;;;;;4952407;29;20051;-65
2022/02/08 07:45:58;;;;;;;14.25;4.28;;;;;;;;;;4951697;28;20066;-66
2022/02/08 07:48:25;;;;;;;17.05;5.63;;;;;;;;;;4952203;29;20036;-64
2022/02/08 07:50:52;;;;;;;16.88;4.10;;;;;;;;;;4952082;29;20106;-65
2022/02/08 07:53:19;;;;;;;31.02;12.18;;;;;;;;;;4952011;29;20027;-65
2022/02/08 07:55:45;;;;;;;25.35;11.27;;;;;;;;;;4951067;29;20110;-65
2022/02/08 07:58:12;;;;;;;19.92;7.13;;;;;;;;;;4952009;29;20023;-64
2022/02/08 08:00:38;;;;;;;43.15;15.93;;;;;;;;;;4951801;29;20054;-66
2022/02/08 08:03:08;;;;;;;20.05;7.38;;;;;;;;;;4955651;29;20041;-66
2022/02/08 08:05:34;;;;;;;20.20;4.40;;;;;;;;;;4953016;29;20107;-66
2022/02/08 08:08:00;;;;;;;10.63;3.33;;;;;;;;;;4945569;29;20027;-66
2022/02/08 08:10:30;;;;;;;15.52;6.55;;;;;;;;;;4942192;29;20039;-66
2022/02/08 08:12:57;;;;;;;16.70;7.40;;;;;;;;;;4941164;29;20030;-66
2022/02/08 08:15:44;;;;;;;14.07;6.35;;;;;;;;;;4942990;29;20045;-66
2022/02/08 08:18:43;;;;;;;10.85;3.20;;;;;;;;;;4945285;29;20118;-66
2022/02/08 08:21:09;;;;;;;14.35;3.95;;;;;;;;;;4952607;29;20026;-65
2022/02/08 08:23:35;;;;;;;26.40;10.77;;;;;;;;;;4952460;29;20042;-66
2022/02/08 08:26:01;;;;;;;16.80;4.70;;;;;;;;;;4953024;29;20039;-66
2022/02/08 08:28:27;;;;;;;14.45;3.92;;;;;;;;;;4952584;29;20037;-65
2022/02/08 08:30:55;;;;;;;17.83;4.38;;;;;;;;;;4952558;29;20032;-66
2022/02/08 08:33:22;;;;;;;16.85;4.35;;;;;;;;;;4952919;29;20023;-65
2022/02/08 08:35:48;;;;;;;13.43;3.83;;;;;;;;;;4952858;29;20023;-66
2022/02/08 08:38:17;;;;;;;16.58;3.90;;;;;;;;;;4935432;29;20067;-65
2022/02/08 08:40:59;;;;;;;13.30;4.28;;;;;;;;;;4952669;29;20027;-66
2022/02/08 08:54:08;;;;;;;15.45;4.00;;;;;;;;;;4956069;29;20024;-64
2022/02/08 08:56:34;;;;;;;9.57;2.85;;;;;;;;;;4956864;29;20102;-64
2022/02/08 08:59:00;;;;;;;9.50;2.88;;;;;;;;;;4956416;29;20027;-64
2022/02/08 09:01:26;;;;;;;39.70;14.95;;;;;;;;;;4956359;29;20027;-65
2022/02/08 09:03:53;;;;;;;33.83;14.35;;;;;;;;;;4955492;29;20487;-66
2022/02/08 09:06:19;;;;;;;13.20;4.30;;;;;;;;;;4951147;29;20027;-64
2022/02/08 09:08:45;;;;;;;11.23;4.07;;;;;;;;;;4955939;29;20031;-66
2022/02/08 09:11:19;;;;;;;10.88;3.80;;;;;;;;;;4955537;29;20074;-65
2022/02/08 09:29:08;;;;;;;18.67;4.72;;;;;;;;;;4956717;29;20037;-64
2022/02/08 09:31:36;;;;;;;;;;;;;;;;;;4952851;29;20027;-63
2022/02/08 09:34:02;;;;;;;13.48;4.93;;;;;;;;;;4958360;29;19910;-65
2022/02/08 09:36:29;;;;;;;8.07;3.40;;;;;;;;;;4955636;29;20110;-65
2022/02/08 09:38:55;;;;;;;44.83;16.40;;;;;;;;;;4937975;29;20046;-63
2022/02/08 09:41:23;;;;;;;59.17;23.30;;;;;;;;;;4956989;29;20027;-62
2022/02/08 09:43:51;;;;;;;18.02;5.30;;;;;;;;;;4957177;29;20023;-64
2022/02/08 09:46:18;;;;;;;24.83;11.23;;;;;;;;;;4952711;29;20051;-65
2022/02/08 09:51:12;;;;;;;13.20;3.72;;;;;;;;;;4955056;29;20062;-65
2022/02/08 09:53:42;;;;;;;8.38;2.97;;;;;;;;;;4956253;29;20023;-63
2022/02/08 09:56:08;;;;;;;11.20;3.85;;;;;;;;;;4954789;28;20034;-65
2022/02/08 09:58:35;;;;;;;12.18;3.42;;;;;;;;;;4954901;29;20443;-64
2022/02/08 10:01:11;;;;;;;12.57;3.47;;;;;;;;;;4954813;29;20118;-64
2022/02/08 10:03:49;;;;;;;8.43;3.03;;;;;;;;;;4956288;29;20028;-65
2022/02/08 10:06:15;;;;;;;16.88;3.92;;;;;;;;;;4956061;29;20035;-63
2022/02/08 10:08:42;;;;;;;13.07;4.30;;;;;;;;;;4954420;29;20088;-64
2022/02/08 10:11:26;;;;;;;19.08;4.32;;;;;;;;;;4954336;29;20042;-65
2022/02/08 10:14:16;;;;;;;11.38;3.05;;;;;;;;;;4956495;29;20159;-63
2022/02/08 10:22:18;;;;;;;44.15;13.65;;;;;;;;;;4954690;29;20035;-63
2022/02/08 10:24:52;;;;;;;27.13;8.80;;;;;;;;;;4954758;29;20039;-65
2022/02/08 10:27:29;;;;;;;37.35;14.90;;;;;;;;;;4954540;29;20460;-64
2022/02/08 10:30:12;;;;;;;10.40;3.10;;;;;;;;;;4954538;29;20042;-64
2022/02/08 10:38:17;;;;;;;11.80;1.90;;;;;;;;;;4954359;29;20556;-64
2022/02/08 10:40:43;;;;;;;15.38;3.47;;;;;;;;;;4954285;29;20031;-66
2022/02/08 10:43:13;;;;;;;16.83;3.42;;;;;;;;;;4954159;29;20031;-68
2022/02/08 10:45:39;;;;;;;17.35;3.95;;;;;;;;;;4954203;29;20031;-63
2022/02/08 10:48:07;;;;;;;10.30;2.08;;;;;;;;;;4955233;29;20866;-65
2022/02/08 10:50:43;;;;;;;13.27;2.90;;;;;;;;;;4954222;29;20409;-67
2022/02/08 10:53:11;;;;;;;9.77;2.40;;;;;;;;;;4954314;29;20025;-66
2022/02/08 10:58:55;;;;;;;16.85;4.00;;;;;;;;;;4953680;29;20357;-67
2022/02/08 11:03:32;;;;;;;13.77;4.85;;;;;;;;;;4953184;29;20028;-66
2022/02/08 11:06:17;;;;;;;11.40;3.33;;;;;;;;;;4954256;29;20479;-67
2022/02/08 11:09:12;;;;;;;14.65;4.22;;;;;;;;;;4953331;28;20043;-65
2022/02/08 11:19:49;;;;;;;9.40;3.30;;;;;;;;;;4953626;29;20031;-64
2022/02/08 11:25:10;;;;;;;12.10;3.22;;;;;;;;;;4953777;29;20065;-65
2022/02/08 11:27:47;;;;;;;9.68;2.47;;;;;;;;;;4953825;29;20035;-65
2022/02/08 11:30:18;;;;;;;14.18;2.63;;;;;;;;;;4953289;29;20035;-65
2022/02/08 11:49:25;;;;;;;12.27;4.35;;;;;;;;;;4952387;29;20031;-65
2022/02/08 11:51:56;;;;;;;14.43;3.55;;;;;;;;;;4953009;29;20079;-66
2022/02/08 11:54:45;;;;;;;15.05;3.33;;;;;;;;;;4953094;29;20050;-65
2022/02/08 12:07:07;;;;;;;10.75;2.88;;;;;;;;;;4953182;29;20058;-65
2022/02/08 12:09:48;;;;;;;15.63;3.30;;;;;;;;;;4953111;29;20024;-65
2022/02/08 12:29:39;;;;;;;50.60;19.58;;;;;;;;;;4952626;29;20168;-65
2022/02/08 12:32:03;;;;;;;11.60;4.70;;;;;;;;;;4951038;29;20471;-65
2022/02/08 12:34:57;;;;;;;10.00;3.30;;;;;;;;;;4952668;29;20031;-63
2022/02/08 12:54:14;;;;;;;9.40;2.80;;;;;;;;;;4951698;29;20480;-64
2022/02/08 12:56:54;;;;;;;9.73;2.92;;;;;;;;;;4952398;29;20036;-65
2022/02/08 14:01:57;;;;;;;7.93;2.25;;;;;;;;;;4955016;29;20070;-63
2022/02/08 14:07:13;;;;;;;10.57;3.58;;;;;;;;;;4954658;29;20031;-64
2022/02/08 14:25:33;;;;;;;6.78;2.95;;;;;;;;;;4894793;29;20092;-64
2022/02/08 14:31:01;;;;;;;9.57;3.75;;;;;;;;;;4894936;29;20690;-64
2022/02/08 14:58:18;;;;;;;12.60;3.35;;;;;;;;;;4894634;29;20900;-66
2022/02/08 15:05:50;;;;;;;8.75;2.83;;;;;;;;;;4953831;29;20042;-63
2022/02/08 15:08:21;;;;;;;11.63;3.10;;;;;;;;;;4954033;29;20035;-66
2022/02/08 15:10:53;;;;;;;9.43;2.90;;;;;;;;;;4953982;29;20176;-68
2022/02/08 15:13:23;;;;;;;9.77;3.35;;;;;;;;;;4953515;29;20481;-66
2022/02/08 15:18:18;;;;;;;13.95;3.50;;;;;;;;;;4953664;29;20110;-65
2022/02/08 15:20:44;;;;;;;12.10;3.50;;;;;;;;;;4953648;29;20019;-73
2022/02/08 15:23:14;;;;;;;11.55;2.85;;;;;;;;;;4953566;29;20034;-69
2022/02/08 15:25:40;;;;;;;10.98;3.13;;;;;;;;;;4953268;29;20024;-69
2022/02/08 15:28:06;;;;;;;14.38;3.67;;;;;;;;;;4953524;29;20487;-65
2022/02/08 15:30:34;;;;;;;14.55;3.78;;;;;;;;;;4952861;29;20397;-65
2022/02/08 15:33:03;;;;;;;12.40;3.67;;;;;;;;;;4953130;29;20036;-65
2022/02/08 15:35:29;;;;;;;9.80;3.50;;;;;;;;;;4953379;29;20023;-64
2022/02/08 16:07:58;;;;;;;18.45;6.05;;;;;;;;;;5065307;28;20090;-66
2022/02/08 16:10:45;;;;;;;18.83;5.70;;;;;;;;;;5065007;28;20044;-65
2022/02/08 16:15:53;;;;;;;19.05;6.88;;;;;;;;;;5064427;28;20360;-63
2022/02/08 16:18:30;;;;;;;19.48;7.22;;;;;;;;;;5064644;28;20579;-66
2022/02/08 16:21:45;;;;;;;23.88;8.18;;;;;;;;;;5064816;28;20081;-65
2022/02/08 16:54:09;;;;;;;22.15;9.45;;;;;;;;;;4985349;28;20122;-65
2022/02/08 16:56:37;;;;;;;26.48;9.68;;;;;;;;;;4987444;28;20034;-64
2022/02/08 16:59:03;;;;;;;28.25;10.75;;;;;;;;;;4985492;28;20034;-67
2022/02/08 17:01:30;;;;;;;25.65;9.95;;;;;;;;;;4985375;28;20125;-65
2022/02/08 17:03:58;;;;;;;22.15;9.63;;;;;;;;;;4981775;28;20058;-64
2022/02/08 17:06:28;;;;;;;25.05;8.65;;;;;;;;;;4975611;28;20041;-65
2022/02/08 17:09:05;;;;;;;23.50;9.32;;;;;;;;;;5024615;28;20034;-65
2022/02/08 17:11:46;;;;;;;19.67;8.55;;;;;;;;;;5035516;28;20132;-64
2022/02/08 17:46:40;;;;;;;25.50;10.45;;;;;;;;;;5043418;28;20059;-62
2022/02/08 17:49:06;;;;;;;30.08;12.10;;;;;;;;;;5043207;28;20028;-67
2022/02/08 17:51:32;;;;;;;31.75;12.82;;;;;;;;;;5043092;28;20021;-66
2022/02/08 17:53:58;;;;;;;29.90;13.40;;;;;;;;;;5034868;28;20043;-66
2022/02/08 17:56:25;;;;;;;34.70;12.10;;;;;;;;;;5034808;28;20436;-65
2022/02/08 17:58:52;;;;;;;41.08;15.25;;;;;;;;;;5035057;28;20032;-65
2022/02/08 18:01:19;;;;;;;39.90;15.48;;;;;;;;;;5048607;28;20476;-66
2022/02/08 18:03:45;;;;;;;35.85;14.95;;;;;;;;;;5051602;28;20045;-66
2022/02/08 18:06:11;;;;;;;31.48;14.02;;;;;;;;;;5052122;28;20067;-64
2022/02/08 18:08:38;;;;;;;41.53;18.40;;;;;;;;;;5052512;28;20031;-65
2022/02/08 18:11:04;;;;;;;46.75;16.48;;;;;;;;;;5032532;28;20018;-63
2022/02/08 18:13:33;;;;;;;37.72;15.55;;;;;;;;;;5032321;28;20128;-66
2022/02/08 18:15:59;;;;;;;31.17;13.80;;;;;;;;;;5031160;28;20097;-66
2022/02/08 18:18:32;;;;;;;30.30;12.38;;;;;;;;;;5037293;28;20017;-64
2022/02/08 18:21:07;;;;;;;29.30;12.10;;;;;;;;;;5042417;28;20373;-64
2022/02/08 19:17:10;;;;;;;17.52;6.53;;;;;;;;;;5042804;28;20032;-65
2022/02/08 19:22:16;;;;;;;19.50;6.95;;;;;;;;;;5037426;28;20029;-65
2022/02/08 19:24:44;;;;;;;14.55;6.45;;;;;;;;;;5040506;28;20484;-65
2022/02/08 19:27:10;;;;;;;25.67;11.07;;;;;;;;;;5042007;28;20483;-64
2022/02/08 19:29:37;;;;;;;18.73;7.28;;;;;;;;;;5040339;28;20075;-64
2022/02/08 19:32:05;;;;;;;15.85;6.35;;;;;;;;;;5041782;28;20024;-65
2022/02/08 19:34:31;;;;;;;16.00;6.60;;;;;;;;;;5041597;28;20370;-64
2022/02/08 19:37:03;;;;;;;13.95;6.07;;;;;;;;;;5040032;28;20018;-66
2022/02/08 19:39:29;;;;;;;14.60;6.30;;;;;;;;;;5039637;28;20469;-63
2022/02/08 19:41:56;;;;;;;18.05;6.05;;;;;;;;;;5041460;28;20596;-64
2022/02/08 19:44:23;;;;;;;12.95;5.68;;;;;;;;;;5043424;28;20100;-65
2022/02/08 19:46:49;;;;;;;15.48;7.10;;;;;;;;;;5041657;28;20856;-66
2022/02/08 19:49:15;;;;;;;17.17;6.55;;;;;;;;;;5038389;28;20108;-65
2022/02/08 19:51:41;;;;;;;14.90;6.13;;;;;;;;;;5040551;28;20087;-65
2022/02/08 19:54:10;;;;;;;17.40;6.43;;;;;;;;;;5040174;28;20040;-65
2022/02/08 19:56:42;;;;;;;14.48;6.53;;;;;;;;;;5041234;28;20013;-65
2022/02/08 19:59:11;;;;;;;16.00;6.20;;;;;;;;;;5036236;28;20032;-65
2022/02/08 20:01:39;;;;;;;16.98;7.18;;;;;;;;;;5040689;28;20029;-64
2022/02/08 20:04:17;;;;;;;18.42;7.10;;;;;;;;;;5039393;28;20124;-64
2022/02/08 20:06:43;;;;;;;15.98;6.60;;;;;;;;;;5039890;28;20105;-65
2022/02/08 20:09:09;;;;;;;17.75;7.00;;;;;;;;;;5039005;28;20025;-65
2022/02/08 20:11:36;;;;;;;15.02;6.25;;;;;;;;;;5038880;28;20022;-65
2022/02/08 20:14:03;;;;;;;14.90;7.07;;;;;;;;;;5039077;28;20481;-64
2022/02/08 20:16:31;;;;;;;20.70;7.95;;;;;;;;;;5041074;28;20036;-64
2022/02/08 20:19:00;;;;;;;20.98;8.77;;;;;;;;;;5034988;28;20112;-65
2022/02/08 20:21:28;;;;;;;27.63;9.77;;;;;;;;;;5036457;28;20108;-64
2022/02/08 20:23:57;;;;;;;19.95;7.85;;;;;;;;;;5040950;28;20778;-65
2022/02/08 20:26:28;;;;;;;16.80;8.13;;;;;;;;;;5039954;28;20389;-65
2022/02/08 20:28:56;;;;;;;17.27;6.93;;;;;;;;;;5038641;28;20033;-64
2022/02/08 20:31:23;;;;;;;18.27;7.30;;;;;;;;;;5035071;28;20120;-65
2022/02/08 20:33:49;;;;;;;19.58;7.88;;;;;;;;;;5031001;28;20041;-66
2022/02/08 20:36:16;;;;;;;18.52;8.02;;;;;;;;;;5030727;28;20029;-66
2022/02/08 20:38:45;;;;;;;18.80;7.82;;;;;;;;;;5030592;28;20034;-65
2022/02/08 20:41:12;;;;;;;22.25;9.23;;;;;;;;;;5035091;28;20079;-66
2022/02/08 20:43:40;;;;;;;17.80;8.20;;;;;;;;;;5039284;28;20054;-66
2022/02/08 20:46:07;;;;;;;20.85;9.73;;;;;;;;;;5041738;28;20124;-66
2022/02/08 20:48:33;;;;;;;20.40;9.63;;;;;;;;;;5041028;28;20033;-67
2022/02/08 20:51:02;;;;;;;19.25;9.75;;;;;;;;;;5046800;28;20075;-66
2022/02/08 20:53:51;;;;;;;17.23;8.60;;;;;;;;;;5033658;28;20037;-66
2022/02/08 20:56:29;;;;;;;18.00;9.35;;;;;;;;;;5033401;28;20451;-65
2022/02/08 21:01:26;;;;;;;19.80;8.93;;;;;;;;;;5033591;28;20041;-65
2022/02/08 21:06:51;;;;;;;18.08;9.27;;;;;;;;;;5031051;28;20056;-64
2022/02/08 21:09:19;;;;;;;17.63;8.98;;;;;;;;;;5030357;28;20029;-65
2022/02/08 21:11:51;;;;;;;20.23;8.70;;;;;;;;;;5030151;28;20036;-64
2022/02/08 21:14:17;;;;;;;18.63;7.90;;;;;;;;;;5030862;28;20140;-66
2022/02/08 21:16:46;;;;;;;19.98;9.10;;;;;;;;;;5030986;28;20488;-65
2022/02/08 21:19:20;;;;;;;25.33;10.15;;;;;;;;;;5030134;28;20568;-64
2022/02/08 21:21:47;;;;;;;20.42;9.48;;;;;;;;;;5027801;28;20021;-65
2022/02/08 21:24:13;;;;;;;23.63;10.38;;;;;;;;;;5029853;28;20077;-64
2022/02/08 21:26:53;;;;;;;21.10;10.40;;;;;;;;;;5029185;28;20548;-64
2022/02/08 21:50:41;;;;;;;22.60;9.88;;;;;;;;;;5036627;28;20029;-64
2022/02/08 21:52:55;;;;;;;18.83;9.45;;;;;;;;;;5050221;28;20388;-64
2022/02/08 21:55:21;;;;;;;18.83;9.65;;;;;;;;;;5052764;28;20033;-62
2022/02/08 21:57:54;;;;;;;16.10;9.20;;;;;;;;;;5043291;28;20465;-63
2022/02/08 22:00:25;;;;;;;22.60;11.05;;;;;;;;;;5035916;28;20025;-65
2022/02/08 22:02:52;;;;;;;20.45;10.27;;;;;;;;;;5031281;28;20508;-64
2022/02/08 22:05:19;;;;;;;21.15;10.43;;;;;;;;;;5033221;28;20057;-64
2022/02/08 22:08:02;;;;;;;25.85;10.88;;;;;;;;;;5032807;28;20104;-64
2022/02/08 22:15:46;;;;;;;18.90;9.55;;;;;;;;;;5032715;28;20056;-64
2022/02/08 22:23:51;;;;;;;22.35;10.55;;;;;;;;;;5032558;28;20038;-63
2022/02/08 22:31:47;;;;;;;19.70;9.85;;;;;;;;;;5032249;28;20026;-64
2022/02/08 22:34:24;;;;;;;18.42;9.35;;;;;;;;;;5031926;28;20046;-63
2022/02/08 22:36:58;;;;;;;18.13;9.38;;;;;;;;;;5032136;28;20049;-63
2022/02/08 22:46:59;;;;;;;19.17;9.63;;;;;;;;;;5032527;28;20083;-63
2022/02/08 22:49:26;;;;;;;22.27;10.57;;;;;;;;;;5031844;28;20105;-64
2022/02/08 22:51:53;;;;;;;28.45;12.32;;;;;;;;;;5031653;28;20076;-64
2022/02/08 22:54:19;;;;;;;24.27;10.90;;;;;;;;;;5031651;28;20033;-64
2022/02/08 22:56:47;;;;;;;20.65;9.90;;;;;;;;;;5031653;28;20021;-63
2022/02/08 22:59:13;;;;;;;18.48;9.73;;;;;;;;;;5031307;28;20040;-64
2022/02/08 23:01:40;;;;;;;18.58;9.60;;;;;;;;;;5031466;28;20061;-64
2022/02/08 23:04:08;;;;;;;20.58;10.18;;;;;;;;;;5031013;28;20045;-63
2022/02/08 23:06:34;;;;;;;22.77;10.57;;;;;;;;;;5031654;28;20032;-63
2022/02/08 23:09:10;;;;;;;22.50;11.07;;;;;;;;;;5031853;28;20029;-63
2022/02/08 23:14:23;;;;;;;23.10;10.73;;;;;;;;;;5051191;28;20048;-64
2022/02/08 23:38:57;;;;;;;17.00;8.32;;;;;;;;;;5028923;28;20033;-64
2022/02/08 23:41:24;;;;;;;17.55;8.32;;;;;;;;;;5029003;28;20032;-63
2022/02/08 23:43:51;;;;;;;17.70;8.00;;;;;;;;;;5046365;28;20060;-64
2022/02/08 23:46:20;;;;;;;25.33;8.68;;;;;;;;;;5049087;28;20061;-64
2022/02/08 23:49:01;;;;;;;19.10;8.02;;;;;;;;;;5048930;28;20496;-64
2022/02/08 23:51:32;;;;;;;16.52;8.10;;;;;;;;;;5048970;28;20029;-63
2022/02/08 23:54:04;;;;;;;17.92;8.38;;;;;;;;;;5048909;28;20688;-63
2022/02/08 23:59:08;;;;;;;16.88;8.15;;;;;;;;;;5048836;28;20043;-62
